Time;durP1;ratioP1;P1;durP2;ratioP2;P2;SDS_P1;SDS_P2;PMS_P1;PMS_P2;Temp;Humidity;BMP_temperature;BMP_pressure;BME280_temperature;BME280_humidity;BME280_pressure;Samples;Min_cycle;Max_cycle;Signal;HPM_P1;HPM_P2
2022/01/31 09:39:15;;;;;;;1.80;1.20;;;;;;;3.86;100.00;97970.94;5109778;28;20568;-85
2022/01/31 09:41:46;;;;;;;1.83;1.03;;;;;;;4.42;100.00;97969.84;5108842;27;40085;-84
2022/01/31 09:44:24;;;;;;;1.07;0.93;;;;;;;4.78;98.10;97940.00;5070972;28;41172;-85
2022/01/31 09:47:06;;;;;;;1.63;1.20;;;;;;;5.25;93.91;97961.84;5083806;28;42182;-82
2022/01/31 09:49:34;;;;;;;0.80;0.80;;;;;;;5.54;89.84;97962.88;5071505;28;41084;-84
2022/01/31 09:52:02;;;;;;;1.07;0.97;;;;;;;5.75;88.16;97966.03;5121313;27;40071;-83
2022/01/31 09:54:30;;;;;;;1.03;0.90;;;;;;;5.94;85.72;97979.84;5070904;28;41780;-82
2022/01/31 09:56:58;;;;;;;0.80;0.80;;;;;;;6.08;84.42;97965.91;5106013;28;43807;-84
2022/01/31 09:59:26;;;;;;;1.43;0.90;;;;;;;6.25;83.46;97976.28;5091105;28;41231;-83
2022/01/31 10:01:55;;;;;;;1.80;1.50;;;;;;;6.44;82.56;97987.38;5090402;28;38904;-80
2022/01/31 10:04:24;;;;;;;1.00;0.73;;;;;;;6.53;81.25;97972.00;5090901;28;40606;-86
2022/01/31 10:06:54;;;;;;;2.10;1.00;;;;;;;6.67;81.32;97986.03;5086887;28;41785;-84
2022/01/31 10:09:23;;;;;;;1.60;1.13;;;;;;;6.68;79.33;97998.22;5071109;28;40630;-87
2022/01/31 10:11:57;;;;;;;0.60;0.60;;;;;;;6.59;79.81;97987.41;5070690;28;40095;-84
2022/01/31 10:17:21;;;;;;;1.50;1.00;;;;;;;6.55;80.35;97978.88;5090175;28;41460;-82
2022/01/31 10:19:49;;;;;;;2.37;0.73;;;;;;;6.48;80.38;97956.50;5091290;28;41951;-87
2022/01/31 10:22:18;;;;;;;1.70;0.83;;;;;;;6.56;80.05;97972.66;5090714;28;41524;-82
2022/01/31 10:24:47;;;;;;;1.93;0.87;;;;;;;6.56;79.28;97956.88;5107613;28;41027;-82
2022/01/31 10:27:19;;;;;;;2.40;0.87;;;;;;;6.57;79.18;97934.88;5070272;28;42053;-82
2022/01/31 10:29:54;;;;;;;0.60;0.60;;;;;;;6.93;78.78;97954.59;5070567;28;41110;-84
2022/01/31 10:32:27;;;;;;;0.73;0.73;;;;;;;7.05;78.19;97940.69;5090263;28;40033;-86
2022/01/31 10:34:57;;;;;;;0.90;0.90;;;;;;;7.18;77.11;97960.03;5090388;28;40883;-86
2022/01/31 10:37:28;;;;;;;0.60;0.60;;;;;;;7.24;76.60;97967.56;5090323;28;41840;-85
2022/01/31 10:45:44;;;;;;;1.43;0.97;;;;;;;6.99;75.81;97941.91;5089995;28;40839;-85
2022/01/31 10:54:12;;;;;;;0.53;0.53;;;;;;;7.17;76.74;97932.03;5072971;28;39176;-85
2022/01/31 10:56:42;;;;;;;0.80;0.77;;;;;;;7.15;75.63;97931.28;5057167;28;40730;-83
2022/01/31 10:59:13;;;;;;;1.27;0.80;;;;;;;7.11;75.79;97935.03;5073054;28;42018;-82
2022/01/31 11:01:42;;;;;;;2.87;1.17;;;;;;;7.18;75.87;97928.44;5104000;27;42821;-85
2022/01/31 11:04:14;;;;;;;0.63;0.63;;;;;;;7.18;75.60;97894.19;5071946;28;39114;-88
2022/01/31 11:06:48;;;;;;;0.70;0.70;;;;;;;7.22;74.63;97895.69;5056282;28;42034;-82
2022/01/31 11:09:18;;;;;;;0.90;0.90;;;;;;;7.38;74.04;97917.50;5056534;28;42864;-85
2022/01/31 11:11:48;;;;;;;1.80;0.60;;;;;;;7.49;73.79;97908.88;5072819;28;41353;-86
2022/01/31 11:14:20;;;;;;;0.50;0.50;;;;;;;7.62;73.15;97930.84;5109143;28;40260;-83
2022/01/31 11:16:49;;;;;;;0.53;0.53;;;;;;;7.90;73.06;97903.53;5089594;28;42580;-83
2022/01/31 11:19:23;;;;;;;2.67;0.80;;;;;;;8.22;71.70;97920.66;5076224;28;41956;-84
2022/01/31 11:21:54;;;;;;;0.50;0.50;;;;;;;8.06;71.23;97919.97;5076150;28;40768;-87
2022/01/31 11:24:27;;;;;;;0.70;0.70;;;;;;;7.92;71.85;97917.41;5093113;28;39206;-84
2022/01/31 11:26:59;;;;;;;0.60;0.53;;;;;;;7.66;72.42;97898.09;5076659;28;41818;-84
2022/01/31 11:29:28;;;;;;;0.80;0.80;;;;;;;7.55;72.60;97914.56;5076725;28;41877;-87
2022/01/31 11:31:56;;;;;;;0.83;0.70;;;;;;;7.41;74.44;97884.84;5092128;28;42749;-84
2022/01/31 11:34:26;;;;;;;0.70;0.50;;;;;;;7.45;74.53;97895.06;5093019;28;38752;-86
2022/01/31 11:36:54;;;;;;;0.60;0.60;;;;;;;7.33;74.53;97882.69;5092973;28;41920;-85
2022/01/31 11:39:22;;;;;;;0.73;0.50;;;;;;;7.20;74.92;97881.78;5101116;28;42843;-85
2022/01/31 11:41:55;;;;;;;0.50;0.50;;;;;;;7.15;75.11;97873.38;5098181;28;40872;-81
2022/01/31 11:44:28;;;;;;;0.67;0.67;;;;;;;7.19;75.50;97882.72;5076494;28;39029;-85
2022/01/31 11:46:59;;;;;;;1.23;0.70;;;;;;;7.28;76.00;97879.53;5076048;28;40299;-89
2022/01/31 11:49:43;;;;;;;1.50;0.70;;;;;;;7.19;75.39;97874.81;5114433;27;42816;-85
2022/01/31 11:52:12;;;;;;;0.47;0.47;;;;;;;6.87;76.31;97855.00;5069472;28;42994;-86
2022/01/31 11:54:47;;;;;;;0.67;0.67;;;;;;;6.78;76.86;97857.28;5056002;28;38640;-87
2022/01/31 11:57:16;;;;;;;1.90;0.70;;;;;;;6.76;77.19;97872.31;5055490;28;41883;-82
2022/01/31 11:59:44;;;;;;;0.50;0.50;;;;;;;6.63;78.00;97865.28;5073087;28;42905;-84
2022/01/31 12:02:16;;;;;;;0.50;0.50;;;;;;;6.56;78.87;97851.66;5090480;28;42615;-81
2022/01/31 12:04:49;;;;;;;1.17;0.83;;;;;;;6.55;78.64;97857.03;5075520;28;39050;-83
2022/01/31 12:07:39;;;;;;;0.50;0.50;;;;;;;6.60;79.08;97858.41;5088459;28;41795;-86
2022/01/31 12:10:09;;;;;;;0.50;0.50;;;;;;;6.55;79.38;97872.81;5074029;28;41809;-86
2022/01/31 12:12:51;;;;;;;0.70;0.70;;;;;;;6.35;79.11;97845.09;5075678;28;41313;-85
2022/01/31 12:15:37;;;;;;;0.50;0.50;;;;;;;6.30;80.01;97837.50;5074894;28;39024;-85
2022/01/31 12:18:50;;;;;;;1.27;0.60;;;;;;;6.29;80.40;97856.00;5075477;28;40659;-85
2022/01/31 12:24:08;;;;;;;0.40;0.40;;;;;;;6.20;80.90;97861.81;5075661;28;41171;-85
2022/01/31 12:26:52;;;;;;;0.93;0.40;;;;;;;6.16;80.88;97857.69;5074663;28;39062;-86
2022/01/31 12:29:22;;;;;;;1.07;0.60;;;;;;;6.05;81.22;97840.78;5074350;28;40742;-83
2022/01/31 12:31:52;;;;;;;1.10;1.00;;;;;;;5.89;81.78;97829.50;5074614;28;41912;-86
2022/01/31 12:34:51;;;;;;;1.27;1.10;;;;;;;6.05;81.78;97859.19;5075331;28;42107;-86
2022/01/31 12:37:28;;;;;;;0.53;0.40;;;;;;;6.03;82.26;97850.56;5045359;28;40120;-86
2022/01/31 12:40:03;;;;;;;0.47;0.47;;;;;;;6.07;82.18;97838.88;5094425;28;39102;-84
2022/01/31 12:46:08;;;;;;;0.67;0.50;;;;;;;6.02;82.73;97846.22;5073957;28;42084;-85
2022/01/31 12:48:37;;;;;;;0.40;0.40;;;;;;;5.97;82.64;97850.91;5071654;28;37872;-86
2022/01/31 12:51:13;;;;;;;0.47;0.47;;;;;;;5.83;83.00;97832.44;5074230;28;40499;-83
2022/01/31 12:53:48;;;;;;;0.43;0.43;;;;;;;5.90;83.56;97849.59;5075058;28;42110;-85
2022/01/31 12:56:30;;;;;;;0.30;0.30;;;;;;;5.81;83.65;97855.34;5091349;28;41259;-84
2022/01/31 12:59:14;;;;;;;0.20;0.20;;;;;;;5.87;83.17;97851.50;5073841;28;39579;-84
2022/01/31 13:01:43;;;;;;;0.40;0.40;;;;;;;5.83;83.22;97856.09;5074192;28;41849;-88
2022/01/31 13:04:13;;;;;;;0.30;0.30;;;;;;;5.67;83.20;97827.28;5091175;28;43245;-86
2022/01/31 13:06:44;;;;;;;0.70;0.70;;;;;;;5.81;83.03;97855.34;5073406;28;41900;-87
2022/01/31 13:09:28;;;;;;;0.40;0.40;;;;;;;5.84;83.49;97855.16;5074600;28;38888;-88
2022/01/31 13:11:58;;;;;;;0.30;0.30;;;;;;;5.77;83.90;97861.72;5070588;28;40603;-85
2022/01/31 13:14:28;;;;;;;1.20;0.40;;;;;;;5.69;84.34;97856.06;5091269;28;43038;-85
2022/01/31 13:20:02;;;;;;;0.33;0.33;;;;;;;5.63;84.03;97836.28;5188144;27;21076;-84
2022/01/31 13:22:34;;;;;;;1.80;0.60;;;;;;;5.72;84.39;97861.13;5160460;27;38883;-85
2022/01/31 13:25:05;;;;;;;0.37;0.37;;;;;;;5.74;84.35;97869.78;5148883;27;40746;-87
2022/01/31 13:27:35;;;;;;;0.33;0.33;;;;;;;5.68;84.39;97846.53;5183442;27;43403;-88
2022/01/31 13:30:05;;;;;;;0.33;0.33;;;;;;;5.80;84.03;97864.19;5158083;27;41215;-88
2022/01/31 13:32:34;;;;;;;1.13;0.40;;;;;;;5.74;83.99;97848.78;5162219;27;38961;-89
2022/01/31 13:35:06;;;;;;;0.40;0.33;;;;;;;5.78;84.18;97855.53;5155137;27;41286;-82
2022/01/31 13:37:37;;;;;;;0.83;0.40;;;;;;;5.79;84.27;97857.22;5176728;27;41903;-84
2022/01/31 13:40:09;;;;;;;0.40;0.40;;;;;;;5.83;84.23;97858.72;5173783;27;41183;-85
2022/01/31 13:42:38;;;;;;;0.40;0.40;;;;;;;5.75;84.23;97838.19;5165485;27;38969;-83
2022/01/31 13:45:14;;;;;;;0.47;0.37;;;;;;;5.76;84.53;97865.28;5152454;27;41640;-83
2022/01/31 13:47:48;;;;;;;0.50;0.50;;;;;;;5.64;84.07;97839.75;5171689;27;42122;-83
2022/01/31 13:50:21;;;;;;;0.50;0.50;;;;;;;5.68;84.62;97849.16;5158114;27;43552;-85
2022/01/31 13:52:57;;;;;;;0.47;0.40;;;;;;;5.78;84.87;97856.38;5168853;27;39676;-87
2022/01/31 13:55:27;;;;;;;1.60;0.40;;;;;;;5.79;84.37;97873.00;5141887;27;41977;-85
2022/01/31 13:57:55;;;;;;;1.17;0.40;;;;;;;5.72;84.39;97862.00;5186627;27;42691;-90
2022/01/31 14:00:24;;;;;;;0.43;0.40;;;;;;;5.82;84.50;97883.31;5141386;27;40825;-87
2022/01/31 14:03:06;;;;;;;2.17;0.40;;;;;;;5.89;84.83;97883.84;5162589;27;39109;-86
2022/01/31 14:05:36;;;;;;;0.37;0.37;;;;;;;5.85;84.63;97893.63;5145178;27;40597;-86
2022/01/31 14:08:06;;;;;;;1.27;0.30;;;;;;;5.70;84.37;97873.50;5131878;27;42330;-88
2022/01/31 14:10:35;;;;;;;0.37;0.37;;;;;;;5.80;84.37;97898.34;5152615;27;42546;-86
2022/01/31 14:13:05;;;;;;;0.40;0.40;;;;;;;5.82;84.50;97898.22;5136231;27;39253;-86
2022/01/31 14:15:39;;;;;;;0.43;0.43;;;;;;;5.71;84.89;97902.31;5141491;27;41102;-88
2022/01/31 14:18:09;;;;;;;0.40;0.40;;;;;;;5.71;84.63;97901.47;5159919;27;41968;-92
2022/01/31 14:20:38;;;;;;;0.30;0.30;;;;;;;5.64;84.65;97900.16;5146750;27;42574;-87
2022/01/31 14:23:10;;;;;;;0.30;0.30;;;;;;;5.61;84.65;97906.41;5161438;27;40063;-90
2022/01/31 14:25:40;;;;;;;0.40;0.40;;;;;;;5.70;84.96;97910.28;5151599;27;42339;-88
2022/01/31 14:28:10;;;;;;;0.33;0.33;;;;;;;5.71;84.84;97933.84;5151104;27;41987;-91
2022/01/31 14:30:46;;;;;;;0.50;0.50;;;;;;;5.72;84.95;97956.56;5146261;27;42505;-87
2022/01/31 14:33:14;;;;;;;0.30;0.30;;;;;;;5.62;84.64;97944.88;5155545;27;40185;-89
2022/01/31 14:35:44;;;;;;;1.50;0.30;;;;;;;5.52;84.95;97938.47;5143039;27;40772;-86
2022/01/31 14:38:17;;;;;;;0.30;0.30;;;;;;;5.39;84.96;97921.72;5142332;27;42713;-87
2022/01/31 14:49:06;;;;;;;0.30;0.30;;;;;;;5.32;85.65;97930.84;5144058;27;42018;-89
2022/01/31 14:51:37;;;;;;;0.30;0.30;;;;;;;5.51;85.68;97967.44;5145710;27;41453;-88
2022/01/31 14:54:07;;;;;;;1.90;0.30;;;;;;;5.50;85.60;97965.75;5144041;27;39081;-90
2022/01/31 14:56:35;;;;;;;0.40;0.40;;;;;;;5.46;85.77;97958.97;5140858;27;40697;-90
2022/01/31 14:59:04;;;;;;;0.40;0.40;;;;;;;5.38;85.94;97947.13;5127141;27;43124;-91
2022/01/31 15:01:32;;;;;;;0.40;0.40;;;;;;;5.43;86.23;97964.41;5145118;27;41049;-88
2022/01/31 15:04:03;;;;;;;0.30;0.30;;;;;;;5.19;85.94;97925.47;5144384;27;39084;-88
2022/01/31 15:06:31;;;;;;;0.40;0.40;;;;;;;5.45;86.03;97975.63;5138450;27;41574;-88
2022/01/31 15:09:00;;;;;;;0.50;0.50;;;;;;;5.24;86.00;97965.41;5127892;27;41996;-86
2022/01/31 15:11:28;;;;;;;0.40;0.40;;;;;;;5.44;86.11;97976.59;5142677;27;41808;-87
2022/01/31 15:13:55;;;;;;;0.40;0.40;;;;;;;5.34;86.13;97977.09;5146695;27;39038;-87
2022/01/31 15:16:28;;;;;;;0.73;0.47;;;;;;;5.32;86.03;97989.44;5137990;27;41412;-84
2022/01/31 15:18:55;;;;;;;0.50;0.50;;;;;;;5.23;86.28;97968.97;5161254;27;42233;-86
2022/01/31 15:21:27;;;;;;;1.10;0.80;;;;;;;5.03;86.33;97937.75;5176006;27;41325;-88
2022/01/31 15:23:56;;;;;;;0.40;0.40;;;;;;;5.33;86.24;97988.53;5158434;27;38870;-85
2022/01/31 15:26:25;;;;;;;0.40;0.40;;;;;;;5.45;86.38;98015.03;5171239;27;41803;-88
2022/01/31 15:28:53;;;;;;;0.57;0.57;;;;;;;5.47;86.72;98013.16;5138018;27;42700;-87
2022/01/31 15:31:21;;;;;;;0.50;0.50;;;;;;;5.52;86.43;98037.41;5136775;27;42015;-87
2022/01/31 15:33:50;;;;;;;0.50;0.50;;;;;;;5.50;86.90;98032.22;5136540;27;38981;-86
2022/01/31 15:36:19;;;;;;;0.67;0.50;;;;;;;5.49;86.82;98033.16;5136888;27;40936;-86
